Time;durP1;ratioP1;P1;durP2;ratioP2;P2;SDS_P1;SDS_P2;PMS_P1;PMS_P2;Temp;Humidity;BMP_temperature;BMP_pressure;BME280_temperature;BME280_humidity;BME280_pressure;Samples;Min_cycle;Max_cycle;Signal;HPM_P1;HPM_P2
2021/11/28 00:01:19;;;;;;;12.63;3.72;;;-0.30;99.90;;;;;;5095472;27;20461;-60
2021/11/28 00:03:46;;;;;;;18.50;4.18;;;-0.30;99.90;;;;;;5099571;28;20115;-60
2021/11/28 00:06:21;;;;;;;11.05;3.47;;;-0.30;99.90;;;;;;5098952;28;20099;-60
2021/11/28 00:11:33;;;;;;;10.02;3.45;;;-0.20;99.90;;;;;;5099569;28;20032;-60
2021/11/28 00:16:28;;;;;;;10.93;3.40;;;0.00;99.90;;;;;;5099541;28;20523;-61
2021/11/28 00:18:54;;;;;;;9.35;2.90;;;0.00;99.90;;;;;;5087618;28;20890;-61
2021/11/28 00:21:20;;;;;;;11.00;2.72;;;0.10;99.90;;;;;;5084591;28;20059;-61
2021/11/28 00:23:45;;;;;;;16.67;4.50;;;0.10;99.90;;;;;;5074427;28;20075;-61
2021/11/28 00:26:13;;;;;;;10.45;3.15;;;0.00;99.90;;;;;;5083638;28;20150;-59
2021/11/28 00:28:39;;;;;;;13.75;4.10;;;0.00;99.90;;;;;;5087670;28;20527;-60
2021/11/28 00:31:05;;;;;;;11.23;3.80;;;0.00;99.90;;;;;;5083934;28;20032;-61
2021/11/28 00:33:31;;;;;;;14.80;3.40;;;0.00;99.90;;;;;;5087719;28;20047;-61
2021/11/28 00:35:57;;;;;;;12.93;3.22;;;-0.10;99.90;;;;;;5085119;28;20431;-61
2021/11/28 00:38:22;;;;;;;12.98;3.05;;;-0.10;99.90;;;;;;5081633;28;20113;-60
2021/11/28 00:40:48;;;;;;;11.30;2.95;;;-0.10;99.90;;;;;;5078851;28;20028;-60
2021/11/28 00:43:16;;;;;;;8.88;2.67;;;-0.10;99.90;;;;;;5084406;28;20388;-62
2021/11/28 00:45:41;;;;;;;9.25;2.58;;;-0.10;99.90;;;;;;5084040;28;20123;-60
2021/11/28 00:48:07;;;;;;;10.02;2.13;;;0.00;99.90;;;;;;5086320;28;20500;-60
2021/11/28 00:50:44;;;;;;;6.97;2.33;;;0.00;99.90;;;;;;5079960;28;20085;-61
2021/11/28 00:53:12;;;;;;;4.03;2.00;;;0.10;99.90;;;;;;5077726;28;20182;-61
2021/11/28 00:55:38;;;;;;;9.82;2.63;;;0.10;99.90;;;;;;5077070;28;20702;-61
2021/11/28 00:58:04;;;;;;;7.43;2.28;;;0.10;99.90;;;;;;5086123;28;20032;-62
2021/11/28 01:00:29;;;;;;;12.80;3.08;;;0.20;99.90;;;;;;5082470;28;20124;-61
2021/11/28 01:02:55;;;;;;;4.03;1.90;;;0.20;99.90;;;;;;5082698;28;20051;-62
2021/11/28 01:05:21;;;;;;;7.43;2.50;;;0.20;99.90;;;;;;5072570;28;20117;-60
2021/11/28 01:07:46;;;;;;;7.55;1.73;;;0.30;99.90;;;;;;5079429;28;20547;-59
2021/11/28 01:10:13;;;;;;;10.38;2.30;;;0.30;99.90;;;;;;5085295;28;20035;-59
2021/11/28 01:12:39;;;;;;;5.10;2.30;;;0.30;99.90;;;;;;5085633;28;20036;-59
2021/11/28 01:15:06;;;;;;;4.82;2.00;;;0.30;99.90;;;;;;5085167;28;20115;-58
2021/11/28 01:17:34;;;;;;;5.97;2.10;;;0.40;99.90;;;;;;5086428;28;20073;-60
2021/11/28 01:19:59;;;;;;;11.23;2.38;;;0.40;99.90;;;;;;5084754;28;20042;-60
2021/11/28 01:22:25;;;;;;;4.78;2.72;;;0.40;99.90;;;;;;5081275;28;20404;-59
2021/11/28 01:24:51;;;;;;;4.65;2.15;;;0.50;99.90;;;;;;5080993;28;20040;-62
2021/11/28 01:27:18;;;;;;;15.32;3.65;;;0.50;99.90;;;;;;5083556;28;20036;-60
2021/11/28 01:29:44;;;;;;;8.02;2.20;;;0.50;99.90;;;;;;5085068;28;20792;-60
2021/11/28 01:32:11;;;;;;;6.28;2.40;;;0.50;99.90;;;;;;5083595;28;20167;-59
2021/11/28 01:34:37;;;;;;;7.30;2.50;;;0.60;99.90;;;;;;5080406;28;20044;-62
2021/11/28 01:37:03;;;;;;;8.00;2.50;;;0.50;99.90;;;;;;5086335;28;20039;-62
2021/11/28 01:39:29;;;;;;;5.53;2.20;;;0.50;99.90;;;;;;5084717;28;20036;-59
2021/11/28 01:41:55;;;;;;;8.95;2.58;;;0.40;99.90;;;;;;5082196;28;20147;-60
2021/11/28 01:44:21;;;;;;;8.52;2.42;;;0.40;99.90;;;;;;5081441;28;20138;-59
2021/11/28 01:46:47;;;;;;;7.30;2.35;;;0.30;99.90;;;;;;5083779;28;20047;-62
2021/11/28 01:49:14;;;;;;;5.50;2.03;;;0.20;99.90;;;;;;5084297;28;20040;-60
2021/11/28 01:51:40;;;;;;;6.82;2.55;;;0.20;99.90;;;;;;5082413;28;20036;-59
2021/11/28 01:54:12;;;;;;;8.57;2.08;;;0.10;99.90;;;;;;5082893;28;20694;-60
2021/11/28 01:56:40;;;;;;;7.85;2.17;;;0.10;99.90;;;;;;5081168;28;20048;-59
2021/11/28 01:59:06;;;;;;;4.97;2.80;;;0.10;99.90;;;;;;5085347;28;20638;-60
2021/11/28 02:01:34;;;;;;;4.63;2.15;;;0.00;99.90;;;;;;5082298;28;20361;-62
2021/11/28 02:04:01;;;;;;;5.55;1.80;;;0.00;99.90;;;;;;5074185;28;20097;-59
2021/11/28 02:06:27;;;;;;;12.35;2.67;;;0.00;99.90;;;;;;5086151;28;20495;-60
2021/11/28 02:08:54;;;;;;;7.97;2.03;;;-0.10;99.90;;;;;;5085605;28;20051;-60
2021/11/28 02:11:20;;;;;;;6.72;2.05;;;-0.10;99.90;;;;;;5083966;28;20035;-58
2021/11/28 02:13:46;;;;;;;4.45;1.98;;;-0.10;99.90;;;;;;5080203;28;20036;-60
2021/11/28 02:16:13;;;;;;;8.23;2.30;;;-0.10;99.90;;;;;;5077381;28;20032;-61
2021/11/28 02:18:40;;;;;;;5.75;2.47;;;-0.10;99.90;;;;;;5083560;28;20169;-62
2021/11/28 02:21:07;;;;;;;8.55;2.13;;;-0.10;99.90;;;;;;5085618;28;20044;-61
2021/11/28 02:23:33;;;;;;;4.80;1.88;;;-0.20;99.90;;;;;;5078214;28;20150;-62
2021/11/28 02:26:06;;;;;;;4.65;1.88;;;-0.10;99.90;;;;;;5078562;28;20072;-62
2021/11/28 02:28:34;;;;;;;4.70;2.08;;;-0.10;99.90;;;;;;5084677;28;20132;-60
2021/11/28 02:31:00;;;;;;;3.47;1.92;;;-0.10;99.90;;;;;;5085769;28;20059;-60
2021/11/28 02:33:26;;;;;;;3.28;1.70;;;-0.20;99.90;;;;;;5083565;28;20047;-62
2021/11/28 02:35:52;;;;;;;5.72;2.08;;;-0.20;99.90;;;;;;5086120;28;20543;-59
2021/11/28 02:38:17;;;;;;;8.00;2.30;;;-0.20;99.90;;;;;;5084863;28;20044;-56
2021/11/28 02:40:44;;;;;;;6.45;2.42;;;-0.20;99.90;;;;;;5084955;28;20086;-62
2021/11/28 02:43:10;;;;;;;7.65;2.13;;;-0.30;99.90;;;;;;5080712;28;20476;-61
2021/11/28 02:45:37;;;;;;;4.07;2.28;;;-0.30;99.90;;;;;;5083988;28;20075;-57
2021/11/28 02:48:08;;;;;;;5.28;2.42;;;-0.40;99.90;;;;;;5083678;28;20048;-59
2021/11/28 02:50:34;;;;;;;3.60;2.13;;;-0.40;99.90;;;;;;5084109;28;20032;-59
2021/11/28 02:53:04;;;;;;;6.53;2.55;;;-0.30;99.90;;;;;;5082684;28;20536;-56
2021/11/28 02:55:34;;;;;;;3.53;1.90;;;-0.30;99.90;;;;;;5075176;28;20066;-59
2021/11/28 02:58:00;;;;;;;2.97;2.08;;;-0.30;99.90;;;;;;5085721;28;20036;-59
2021/11/28 03:00:29;;;;;;;3.70;2.20;;;-0.30;99.90;;;;;;5083827;28;20036;-59
2021/11/28 03:02:55;;;;;;;6.13;2.20;;;-0.30;99.90;;;;;;5077474;28;20028;-59
2021/11/28 03:05:20;;;;;;;5.80;2.50;;;-0.30;99.90;;;;;;5078280;28;20095;-60
2021/11/28 03:07:46;;;;;;;4.72;2.20;;;-0.30;99.90;;;;;;5086074;28;20032;-59
2021/11/28 03:10:38;;;;;;;4.10;2.20;;;-0.20;99.90;;;;;;5082908;28;20036;-57
2021/11/28 03:13:07;;;;;;;5.50;2.55;;;-0.20;99.90;;;;;;5072416;28;20036;-60
2021/11/28 03:15:33;;;;;;;4.13;2.05;;;-0.20;99.90;;;;;;5075058;28;20085;-56
2021/11/28 03:17:59;;;;;;;3.03;2.13;;;-0.10;99.90;;;;;;5077388;28;20437;-60
2021/11/28 03:20:25;;;;;;;3.72;2.10;;;-0.20;99.90;;;;;;5070539;28;20045;-60
2021/11/28 03:22:52;;;;;;;5.28;2.03;;;-0.20;99.90;;;;;;5080550;28;20035;-58
2021/11/28 03:25:20;;;;;;;4.53;2.22;;;-0.20;99.90;;;;;;5071406;28;20028;-59
2021/11/28 03:27:46;;;;;;;6.95;2.50;;;-0.20;99.90;;;;;;5085842;28;20107;-61
2021/11/28 03:30:14;;;;;;;6.68;2.35;;;-0.30;99.90;;;;;;5076147;28;20225;-60
2021/11/28 03:32:39;;;;;;;2.17;1.80;;;-0.30;99.90;;;;;;5084536;28;20399;-61
2021/11/28 03:35:06;;;;;;;5.75;1.90;;;-0.20;99.90;;;;;;5083567;28;20043;-59
2021/11/28 03:37:32;;;;;;;6.75;1.98;;;-0.20;99.90;;;;;;5077830;28;20045;-59
2021/11/28 03:39:58;;;;;;;4.72;1.90;;;-0.20;99.90;;;;;;5079100;28;20043;-60
2021/11/28 03:42:25;;;;;;;1.75;1.45;;;-0.20;99.90;;;;;;5078643;28;20133;-57
2021/11/28 03:44:50;;;;;;;6.57;2.20;;;-0.20;99.90;;;;;;5075870;28;20036;-60
2021/11/28 03:47:17;;;;;;;2.15;1.55;;;-0.10;99.90;;;;;;5084219;28;20166;-59
2021/11/28 03:49:43;;;;;;;3.08;1.77;;;-0.20;99.90;;;;;;5083646;28;20040;-60
2021/11/28 03:52:09;;;;;;;4.80;1.67;;;-0.20;99.90;;;;;;5076331;28;20399;-60
2021/11/28 03:54:35;;;;;;;2.88;1.60;;;-0.20;99.90;;;;;;5078060;28;20040;-56
2021/11/28 03:57:01;;;;;;;3.30;1.67;;;-0.30;99.90;;;;;;5084676;28;20063;-59
2021/11/28 03:59:28;;;;;;;1.40;1.17;;;-0.30;99.90;;;;;;5085779;28;20659;-59
2021/11/28 04:01:54;;;;;;;2.50;1.55;;;-0.30;99.90;;;;;;5082197;28;20036;-59
2021/11/28 04:04:19;;;;;;;2.63;1.48;;;-0.40;99.90;;;;;;5082915;28;20043;-59
2021/11/28 04:06:45;;;;;;;2.38;1.77;;;-0.30;99.90;;;;;;5084645;28;20044;-58
2021/11/28 04:09:12;;;;;;;3.13;1.20;;;-0.30;99.90;;;;;;5087150;28;20147;-58
2021/11/28 04:11:37;;;;;;;1.90;1.45;;;-0.30;99.90;;;;;;5086255;28;20658;-60
2021/11/28 04:14:03;;;;;;;1.20;1.10;;;-0.30;99.90;;;;;;5085212;28;20173;-59
2021/11/28 04:16:29;;;;;;;2.05;1.30;;;-0.20;99.90;;;;;;5088841;28;20044;-60
2021/11/28 04:18:55;;;;;;;2.83;1.20;;;-0.20;99.90;;;;;;5087113;28;20070;-60
2021/11/28 04:21:21;;;;;;;3.10;1.40;;;-0.20;99.90;;;;;;5083484;28;20549;-59
2021/11/28 04:23:48;;;;;;;2.58;1.40;;;-0.10;99.90;;;;;;5084061;28;20040;-61
2021/11/28 04:26:15;;;;;;;1.80;1.08;;;-0.10;99.90;;;;;;5079704;28;20052;-60
2021/11/28 04:28:40;;;;;;;2.70;1.50;;;0.00;99.90;;;;;;5086275;28;20071;-61
2021/11/28 04:31:06;;;;;;;2.55;1.33;;;0.00;99.90;;;;;;5075686;28;20060;-60
2021/11/28 04:33:32;;;;;;;2.03;1.35;;;0.00;99.90;;;;;;5068241;28;20645;-59
2021/11/28 04:35:57;;;;;;;2.20;1.50;;;0.00;99.90;;;;;;5067951;28;20052;-57
2021/11/28 04:38:23;;;;;;;2.63;1.40;;;0.00;99.90;;;;;;5068740;28;20040;-60
2021/11/28 04:40:49;;;;;;;4.10;1.73;;;0.00;99.90;;;;;;5067070;28;20123;-59
2021/11/28 04:43:14;;;;;;;2.42;1.30;;;0.00;99.90;;;;;;5063597;28;20037;-59
2021/11/28 04:45:40;;;;;;;4.85;1.75;;;0.00;99.90;;;;;;5061921;28;20044;-60
2021/11/28 04:48:06;;;;;;;1.88;1.17;;;0.00;99.90;;;;;;5065779;28;20407;-58
2021/11/28 04:50:32;;;;;;;1.65;1.13;;;0.00;99.90;;;;;;5065780;28;20558;-59
2021/11/28 04:52:58;;;;;;;3.58;1.50;;;0.00;99.90;;;;;;5065472;28;20064;-58
2021/11/28 04:55:24;;;;;;;2.38;1.33;;;0.00;99.90;;;;;;5068320;28;20441;-61
2021/11/28 04:57:49;;;;;;;1.67;1.20;;;0.00;99.90;;;;;;5067345;28;20043;-61
2021/11/28 05:00:19;;;;;;;5.03;1.40;;;0.00;99.90;;;;;;5066046;28;20028;-59
2021/11/28 05:02:45;;;;;;;3.35;1.60;;;0.10;99.90;;;;;;5062214;28;20048;-59
2021/11/28 05:05:11;;;;;;;5.07;1.77;;;0.10;99.90;;;;;;5065620;28;20448;-61
2021/11/28 05:07:37;;;;;;;2.15;1.50;;;0.10;99.90;;;;;;5063594;28;20072;-61
2021/11/28 05:10:04;;;;;;;2.63;1.30;;;0.10;99.90;;;;;;5069058;28;20127;-61
2021/11/28 05:12:30;;;;;;;82.82;39.95;;;0.10;99.90;;;;;;5067359;28;20079;-65
2021/11/28 05:14:56;;;;;;;14.13;6.65;;;0.10;99.90;;;;;;5066430;28;20516;-59
2021/11/28 05:17:22;;;;;;;7.60;2.95;;;0.10;99.90;;;;;;5055186;28;20052;-57
2021/11/28 05:19:47;;;;;;;3.13;1.80;;;0.20;99.90;;;;;;5056155;28;20054;-60
2021/11/28 05:22:13;;;;;;;2.65;1.10;;;0.10;99.90;;;;;;5053360;28;20037;-61
2021/11/28 05:24:39;;;;;;;3.30;1.50;;;0.10;99.90;;;;;;5053551;28;20040;-60
2021/11/28 05:27:05;;;;;;;2.50;1.20;;;0.10;99.90;;;;;;5053346;28;20467;-60
2021/11/28 05:29:31;;;;;;;4.22;1.52;;;0.10;99.90;;;;;;5057149;28;20068;-60
2021/11/28 05:31:56;;;;;;;1.25;0.90;;;0.10;99.90;;;;;;5074804;28;20036;-64
2021/11/28 05:34:22;;;;;;;3.58;1.63;;;0.00;99.90;;;;;;5077305;28;20079;-60
2021/11/28 05:36:48;;;;;;;3.25;1.17;;;0.00;99.90;;;;;;5081394;28;20036;-61
2021/11/28 05:39:13;;;;;;;1.95;1.20;;;0.00;99.90;;;;;;5077230;28;20043;-61
2021/11/28 05:41:39;;;;;;;2.90;1.75;;;0.00;99.90;;;;;;5074823;28;20042;-62
2021/11/28 05:44:05;;;;;;;130.30;66.30;;;0.00;99.90;;;;;;5078047;28;20044;-59
2021/11/28 05:46:31;;;;;;;32.15;16.10;;;0.00;99.90;;;;;;5069386;28;20141;-61
2021/11/28 05:48:56;;;;;;;33.78;18.80;;;0.10;99.90;;;;;;5061297;28;20039;-60
2021/11/28 05:51:22;;;;;;;131.82;57.17;;;0.10;99.90;;;;;;5058386;28;20072;-61
2021/11/28 05:53:48;;;;;;;471.63;232.85;;;0.10;99.90;;;;;;5061881;28;20044;-59
2021/11/28 05:56:16;;;;;;;121.70;48.92;;;0.10;99.90;;;;;;5061650;28;20041;-59
2021/11/28 05:58:42;;;;;;;58.75;24.05;;;0.20;99.90;;;;;;5063655;28;20043;-58
2021/11/28 06:01:08;;;;;;;22.95;8.57;;;0.20;99.90;;;;;;5062540;28;20040;-60
2021/11/28 06:03:34;;;;;;;6.95;3.50;;;0.20;99.90;;;;;;5066147;28;20067;-61
2021/11/28 06:06:00;;;;;;;7.72;3.03;;;0.20;99.90;;;;;;5068174;28;20044;-57
2021/11/28 06:08:25;;;;;;;11.55;5.15;;;0.10;99.90;;;;;;5064160;28;20068;-60
2021/11/28 06:10:51;;;;;;;7.35;2.53;;;0.10;99.90;;;;;;5059743;28;20480;-58
2021/11/28 06:13:17;;;;;;;2.67;1.58;;;0.10;99.90;;;;;;5049672;28;20076;-58
2021/11/28 06:15:42;;;;;;;2.05;1.40;;;0.00;99.90;;;;;;5065285;28;20796;-55
2021/11/28 06:18:10;;;;;;;2.83;1.42;;;0.00;99.90;;;;;;5065541;28;20036;-61
2021/11/28 06:20:36;;;;;;;1.60;1.20;;;0.00;99.90;;;;;;5066034;28;20453;-60
2021/11/28 06:23:02;;;;;;;3.20;1.73;;;0.10;99.90;;;;;;5066431;28;20123;-55
2021/11/28 06:25:28;;;;;;;1.90;1.20;;;0.10;99.90;;;;;;5061574;28;20040;-60
2021/11/28 06:27:54;;;;;;;4.63;1.52;;;0.10;99.90;;;;;;5060880;28;20106;-60
2021/11/28 06:30:20;;;;;;;3.78;1.75;;;0.10;99.90;;;;;;5064274;28;20080;-60
2021/11/28 06:32:46;;;;;;;62.97;31.23;;;0.20;99.90;;;;;;5066464;28;20040;-60
2021/11/28 06:35:12;;;;;;;16.00;8.40;;;0.20;99.90;;;;;;5060231;28;20035;-60
2021/11/28 06:37:37;;;;;;;297.05;115.18;;;0.20;99.90;;;;;;5064151;28;20044;-61
2021/11/28 06:40:04;;;;;;;28.40;12.32;;;0.20;99.90;;;;;;5058918;28;20040;-61
2021/11/28 06:42:30;;;;;;;68.07;27.95;;;0.20;99.90;;;;;;5065044;28;20852;-61
2021/11/28 06:44:55;;;;;;;24.40;10.77;;;0.20;99.90;;;;;;5064972;28;20044;-55
2021/11/28 06:47:21;;;;;;;15.70;5.93;;;0.30;99.90;;;;;;5065223;28;20048;-60
2021/11/28 06:49:47;;;;;;;6.20;2.70;;;0.30;99.90;;;;;;5065314;28;20614;-59
2021/11/28 06:52:13;;;;;;;3.38;1.83;;;0.30;99.90;;;;;;5067196;28;20040;-61
2021/11/28 06:54:38;;;;;;;7.70;2.63;;;0.20;99.90;;;;;;5063741;28;20047;-60
2021/11/28 06:57:05;;;;;;;20.13;10.73;;;0.20;99.90;;;;;;5067317;28;20041;-61
2021/11/28 06:59:31;;;;;;;55.47;27.63;;;0.30;99.90;;;;;;5057792;28;20048;-60
2021/11/28 07:01:57;;;;;;;14.57;6.40;;;0.30;99.90;;;;;;5053137;28;20037;-60
2021/11/28 07:04:23;;;;;;;8.40;3.63;;;0.40;99.90;;;;;;5059011;28;20056;-61
2021/11/28 07:06:49;;;;;;;5.55;1.90;;;0.40;99.90;;;;;;5063297;28;20732;-61
2021/11/28 07:09:14;;;;;;;3.53;1.60;;;0.30;99.90;;;;;;5058638;28;20637;-60
2021/11/28 07:11:40;;;;;;;2.55;1.63;;;0.40;99.90;;;;;;5064033;28;20131;-61
2021/11/28 07:14:06;;;;;;;2.95;1.48;;;0.40;99.90;;;;;;5060378;28;20032;-60
2021/11/28 07:16:32;;;;;;;3.05;1.92;;;0.40;99.90;;;;;;5062368;28;20045;-60
2021/11/28 07:18:57;;;;;;;2.47;1.55;;;0.40;99.90;;;;;;5063948;28;20045;-61
2021/11/28 07:21:23;;;;;;;2.50;1.67;;;0.40;99.90;;;;;;5064511;28;20493;-59
2021/11/28 07:23:49;;;;;;;2.63;1.85;;;0.40;99.90;;;;;;5062746;28;20060;-60
2021/11/28 07:26:16;;;;;;;4.30;1.30;;;0.40;99.90;;;;;;5065633;28;20123;-59
2021/11/28 07:28:43;;;;;;;3.83;1.40;;;0.40;99.90;;;;;;5064499;28;20041;-60
2021/11/28 07:31:10;;;;;;;1.88;1.23;;;0.40;99.90;;;;;;5068556;28;20064;-59
2021/11/28 07:33:36;;;;;;;2.63;1.75;;;0.50;99.90;;;;;;5065138;28;20048;-57
2021/11/28 07:36:06;;;;;;;4.47;1.40;;;0.50;99.90;;;;;;5067242;28;20077;-59
2021/11/28 07:38:32;;;;;;;3.05;1.58;;;0.50;99.90;;;;;;5068270;28;20115;-61
2021/11/28 07:40:58;;;;;;;2.95;1.20;;;0.60;99.90;;;;;;5060306;28;20175;-59
2021/11/28 07:43:24;;;;;;;5.10;1.27;;;0.60;99.90;;;;;;5067229;28;20033;-58
2021/11/28 07:45:50;;;;;;;2.15;1.50;;;0.70;99.90;;;;;;5068217;28;20056;-58
2021/11/28 07:48:15;;;;;;;2.50;1.35;;;0.70;99.90;;;;;;5069157;28;20060;-57
2021/11/28 07:50:41;;;;;;;4.70;1.45;;;0.70;99.90;;;;;;5067511;28;20412;-60
2021/11/28 07:53:07;;;;;;;4.28;1.45;;;0.70;99.90;;;;;;5066142;28;20443;-61
2021/11/28 07:55:32;;;;;;;3.45;1.83;;;0.70;99.90;;;;;;5065748;28;20029;-60
2021/11/28 07:58:00;;;;;;;5.03;1.33;;;0.70;99.90;;;;;;5066336;28;20488;-59
2021/11/28 08:00:25;;;;;;;2.25;1.27;;;0.70;99.90;;;;;;5063149;28;20539;-57
2021/11/28 08:02:51;;;;;;;2.22;1.50;;;0.70;99.90;;;;;;5067963;28;20033;-54
2021/11/28 08:05:16;;;;;;;1.92;1.30;;;0.70;99.90;;;;;;5066431;28;20037;-57
2021/11/28 08:07:42;;;;;;;3.67;1.63;;;0.70;99.90;;;;;;5066294;28;20128;-60
2021/11/28 08:10:08;;;;;;;2.90;1.67;;;0.70;99.90;;;;;;5068069;28;20036;-61
2021/11/28 08:12:34;;;;;;;1.88;1.50;;;0.70;99.90;;;;;;5070074;28;20495;-61
2021/11/28 08:15:01;;;;;;;3.05;1.70;;;0.70;99.90;;;;;;5065525;28;20071;-60
2021/11/28 08:17:26;;;;;;;1.95;1.50;;;0.70;99.90;;;;;;5069100;28;20040;-56
2021/11/28 08:19:52;;;;;;;6.10;1.60;;;0.70;99.90;;;;;;5067480;28;20040;-58
2021/11/28 08:22:18;;;;;;;35.85;15.63;;;0.70;99.90;;;;;;5068854;28;20523;-61
2021/11/28 08:24:44;;;;;;;24.90;11.13;;;0.60;99.90;;;;;;5065305;28;20036;-59
2021/11/28 08:27:10;;;;;;;24.65;10.85;;;0.60;99.90;;;;;;5068275;28;20040;-58
2021/11/28 08:29:36;;;;;;;7.50;3.22;;;0.60;99.90;;;;;;5065199;28;20040;-61
2021/11/28 08:32:02;;;;;;;7.30;3.78;;;0.50;99.90;;;;;;5069436;28;20032;-61
2021/11/28 08:34:28;;;;;;;21.20;10.43;;;0.50;99.90;;;;;;5067396;28;20047;-59
2021/11/28 08:36:54;;;;;;;9.98;4.13;;;0.50;99.90;;;;;;5070132;28;20090;-60
2021/11/28 08:39:19;;;;;;;3.55;2.08;;;0.50;99.90;;;;;;5058658;28;20496;-58
2021/11/28 08:41:45;;;;;;;2.83;1.60;;;0.40;99.90;;;;;;5061453;28;20067;-58
2021/11/28 08:44:11;;;;;;;3.42;1.55;;;0.40;99.90;;;;;;5065505;28;20112;-59
2021/11/28 08:46:36;;;;;;;6.60;1.58;;;0.30;99.90;;;;;;5068018;28;20044;-61
2021/11/28 08:49:03;;;;;;;1.42;1.15;;;0.30;99.90;;;;;;5066119;28;20109;-59
2021/11/28 08:51:29;;;;;;;3.75;1.63;;;0.30;99.90;;;;;;5066934;28;20043;-58
2021/11/28 08:53:56;;;;;;;2.33;1.42;;;0.30;99.90;;;;;;5057784;28;20407;-59
2021/11/28 08:56:23;;;;;;;2.30;1.40;;;0.30;99.90;;;;;;5059302;28;20036;-61
2021/11/28 08:58:50;;;;;;;4.03;1.60;;;0.30;99.90;;;;;;5065281;28;20123;-56
2021/11/28 09:01:16;;;;;;;5.40;2.40;;;0.30;99.90;;;;;;5067318;28;20037;-61
2021/11/28 09:03:41;;;;;;;7.95;3.65;;;0.40;99.90;;;;;;5066433;28;20443;-58
2021/11/28 09:06:08;;;;;;;5.68;2.70;;;0.50;99.90;;;;;;5068872;28;20488;-60
2021/11/28 09:08:37;;;;;;;51.05;24.60;;;0.50;99.90;;;;;;5062007;28;20048;-61
2021/11/28 09:11:04;;;;;;;33.05;13.70;;;0.50;99.90;;;;;;5058020;28;20116;-60
2021/11/28 09:13:35;;;;;;;11.48;5.88;;;0.60;99.90;;;;;;5058483;28;20137;-60
2021/11/28 09:16:01;;;;;;;18.10;7.90;;;0.50;99.90;;;;;;5056492;28;20044;-60
2021/11/28 09:18:33;;;;;;;8.02;2.95;;;0.60;99.90;;;;;;5066148;28;20102;-59
2021/11/28 09:21:00;;;;;;;3.58;1.40;;;0.70;99.90;;;;;;5065825;28;20047;-60
2021/11/28 09:26:12;;;;;;;3.85;1.67;;;0.90;99.90;;;;;;5066847;28;20072;-60
2021/11/28 09:28:38;;;;;;;2.45;1.40;;;1.00;99.90;;;;;;5064715;28;20120;-61
2021/11/28 09:31:09;;;;;;;2.20;1.50;;;1.10;99.90;;;;;;5067558;28;20119;-59
2021/11/28 09:33:35;;;;;;;2.28;1.20;;;1.20;99.90;;;;;;5064869;28;20446;-60
2021/11/28 09:36:01;;;;;;;6.43;1.90;;;1.30;99.90;;;;;;5066596;28;20048;-57
2021/11/28 09:38:26;;;;;;;5.60;2.65;;;1.50;99.90;;;;;;5061803;28;20082;-60
2021/11/28 09:40:53;;;;;;;4.45;2.17;;;1.60;99.90;;;;;;5056468;28;20048;-60
2021/11/28 09:43:20;;;;;;;3.95;1.65;;;1.80;99.90;;;;;;5064535;28;20493;-58
2021/11/28 09:45:46;;;;;;;2.90;1.90;;;1.90;99.90;;;;;;5063156;28;20055;-60
2021/11/28 09:48:14;;;;;;;4.00;1.88;;;1.90;99.90;;;;;;5064275;28;20051;-60
2021/11/28 09:50:40;;;;;;;2.95;1.88;;;2.00;99.90;;;;;;5060169;28;20507;-60
2021/11/28 09:53:07;;;;;;;8.50;3.47;;;2.00;99.90;;;;;;5064103;28;20115;-60
2021/11/28 09:55:34;;;;;;;6.35;2.70;;;2.10;99.90;;;;;;5063961;28;20046;-60
2021/11/28 09:58:01;;;;;;;5.30;2.83;;;2.10;99.90;;;;;;5057917;28;20752;-60
2021/11/28 10:00:27;;;;;;;34.28;13.98;;;2.20;99.90;;;;;;5060342;28;20056;-57
2021/11/28 10:02:52;;;;;;;7.45;3.45;;;2.20;99.90;;;;;;5065845;28;20504;-59
2021/11/28 10:05:18;;;;;;;2.97;1.50;;;2.40;99.90;;;;;;5064803;28;20037;-58
2021/11/28 10:07:47;;;;;;;17.10;5.80;;;2.50;99.90;;;;;;5064184;28;20045;-56
2021/11/28 10:10:15;;;;;;;6.25;2.75;;;2.60;99.90;;;;;;5055639;28;20037;-60
2021/11/28 10:12:43;;;;;;;4.07;1.98;;;2.80;99.90;;;;;;5065780;28;20036;-60
2021/11/28 10:15:12;;;;;;;3.72;1.60;;;2.90;99.90;;;;;;5062796;28;20067;-60
2021/11/28 10:17:39;;;;;;;4.97;1.60;;;3.00;99.90;;;;;;5066768;28;20048;-59
2021/11/28 10:20:11;;;;;;;5.35;1.52;;;3.00;99.90;;;;;;5065287;28;20052;-58
2021/11/28 10:22:37;;;;;;;5.88;1.83;;;3.20;99.90;;;;;;5068192;28;20089;-61
2021/11/28 10:25:15;;;;;;;1.90;1.52;;;3.40;99.90;;;;;;5064398;28;20159;-58
2021/11/28 10:27:47;;;;;;;2.70;1.27;;;3.50;99.90;;;;;;5067648;28;20044;-60
2021/11/28 10:30:30;;;;;;;2.05;1.40;;;3.50;99.90;;;;;;5063022;28;20067;-60
2021/11/28 10:33:12;;;;;;;3.33;1.30;;;3.60;99.90;;;;;;5067585;28;20190;-59
2021/11/28 10:35:59;;;;;;;3.38;1.33;;;3.60;99.90;;;;;;5066019;28;20040;-60
2021/11/28 10:38:36;;;;;;;1.88;1.20;;;3.50;99.90;;;;;;5061928;28;20041;-60
2021/11/28 10:41:02;;;;;;;2.03;1.23;;;3.30;99.90;;;;;;5054178;28;20032;-61
2021/11/28 10:43:39;;;;;;;2.92;1.55;;;3.30;99.90;;;;;;5064544;28;20051;-59
2021/11/28 10:46:26;;;;;;;3.67;1.40;;;3.40;99.90;;;;;;5064767;28;20048;-60
2021/11/28 10:49:10;;;;;;;2.75;1.73;;;3.40;99.90;;;;;;5063529;28;20114;-58
2021/11/28 10:51:38;;;;;;;2.65;1.60;;;3.40;99.90;;;;;;5062971;28;20132;-61
2021/11/28 10:54:26;;;;;;;2.60;1.52;;;3.30;99.90;;;;;;5055070;28;20037;-58
2021/11/28 10:57:07;;;;;;;1.92;1.10;;;3.30;99.90;;;;;;5060605;28;20462;-57
2021/11/28 10:59:36;;;;;;;3.15;1.40;;;3.20;99.90;;;;;;5063618;28;20041;-61
2021/11/28 11:02:20;;;;;;;2.67;1.55;;;3.20;99.90;;;;;;5063528;28;20036;-60
2021/11/28 11:04:46;;;;;;;3.45;1.88;;;3.20;99.90;;;;;;5063614;28;20572;-59
2021/11/28 11:07:13;;;;;;;2.08;1.50;;;3.20;99.90;;;;;;5065599;28;20032;-60
2021/11/28 11:09:46;;;;;;;2.25;1.45;;;3.30;99.90;;;;;;5054154;28;20051;-59
2021/11/28 11:12:32;;;;;;;2.15;1.52;;;3.40;99.90;;;;;;5061803;28;20638;-60
2021/11/28 11:14:58;;;;;;;3.05;1.48;;;3.60;99.90;;;;;;5063614;28;20062;-57
2021/11/28 11:17:28;;;;;;;3.63;1.60;;;3.50;99.90;;;;;;5066012;28;20464;-60
2021/11/28 11:19:55;;;;;;;4.40;1.20;;;3.40;99.90;;;;;;5062896;28;20040;-57
2021/11/28 11:22:26;;;;;;;2.15;1.50;;;3.60;99.90;;;;;;5063633;28;20034;-60
2021/11/28 11:24:54;;;;;;;13.07;6.47;;;3.70;99.90;;;;;;5056761;28;20049;-61
2021/11/28 11:27:21;;;;;;;5.53;2.38;;;3.80;99.90;;;;;;5065268;28;20068;-58
2021/11/28 11:29:53;;;;;;;5.75;2.65;;;3.90;99.90;;;;;;5064044;28;20112;-61
2021/11/28 11:32:23;;;;;;;1.80;1.10;;;4.00;99.90;;;;;;5066643;28;20500;-58
2021/11/28 11:34:58;;;;;;;11.85;6.38;;;3.90;99.90;;;;;;5062054;28;20044;-59
2021/11/28 11:37:31;;;;;;;3.50;2.00;;;3.90;99.90;;;;;;5063488;28;20040;-60
2021/11/28 11:39:57;;;;;;;2.95;1.20;;;3.80;99.90;;;;;;5062524;28;20082;-60
2021/11/28 11:42:27;;;;;;;2.08;1.20;;;3.80;99.90;;;;;;5062386;28;20050;-61
2021/11/28 11:44:53;;;;;;;16.67;7.32;;;3.70;99.90;;;;;;5062745;28;20029;-61
2021/11/28 11:47:19;;;;;;;4.22;2.33;;;3.80;99.90;;;;;;5067519;28;20148;-56
2021/11/28 11:49:46;;;;;;;1.65;1.00;;;3.70;99.90;;;;;;5062883;28;20036;-59
2021/11/28 11:52:13;;;;;;;1.90;1.30;;;3.50;99.90;;;;;;5065827;28;20564;-57
2021/11/28 11:54:43;;;;;;;1.45;1.00;;;3.40;99.90;;;;;;5062369;28;20139;-58
2021/11/28 11:57:09;;;;;;;2.47;1.15;;;3.40;99.90;;;;;;5066135;28;20036;-60
2021/11/28 12:00:04;;;;;;;1.60;0.95;;;3.40;99.90;;;;;;5063364;28;20051;-60
2021/11/28 12:02:37;;;;;;;1.38;0.80;;;3.40;99.90;;;;;;5061472;28;20036;-59
2021/11/28 12:05:25;;;;;;;1.63;1.10;;;3.40;99.90;;;;;;5060727;28;20039;-59
2021/11/28 12:07:56;;;;;;;1.63;1.15;;;3.50;99.90;;;;;;5060490;28;20064;-60
2021/11/28 12:10:40;;;;;;;1.83;1.00;;;3.60;99.90;;;;;;5060288;28;20045;-61
2021/11/28 12:13:09;;;;;;;3.88;1.20;;;3.60;99.90;;;;;;5057283;28;20041;-60
2021/11/28 12:15:49;;;;;;;2.63;1.00;;;3.60;99.90;;;;;;5067399;28;20041;-59
2021/11/28 12:18:33;;;;;;;1.27;0.80;;;3.70;99.20;;;;;;5061987;28;20480;-58
2021/11/28 12:20:59;;;;;;;2.13;1.30;;;3.60;99.90;;;;;;5069517;28;20405;-60
2021/11/28 12:23:54;;;;;;;1.40;0.95;;;3.50;99.90;;;;;;5067023;28;20045;-59
2021/11/28 12:26:25;;;;;;;5.80;2.35;;;3.40;99.90;;;;;;5063784;28;20040;-59
2021/11/28 12:28:52;;;;;;;2.95;1.58;;;3.50;99.90;;;;;;5064348;28;20037;-60
2021/11/28 12:31:33;;;;;;;3.45;2.08;;;3.50;99.90;;;;;;5062200;28;20032;-59
2021/11/28 12:34:09;;;;;;;3.75;2.55;;;3.50;99.90;;;;;;5065093;28;20040;-61
2021/11/28 12:36:35;;;;;;;5.80;3.05;;;3.50;99.90;;;;;;5068416;28;20124;-60
2021/11/28 12:39:08;;;;;;;5.00;3.40;;;3.50;99.90;;;;;;5057070;28;20040;-60
2021/11/28 12:41:47;;;;;;;5.63;3.40;;;3.40;99.90;;;;;;5056750;28;20374;-59
2021/11/28 12:44:18;;;;;;;3.45;2.55;;;3.30;99.90;;;;;;5056685;28;20476;-57
2021/11/28 12:46:46;;;;;;;5.72;3.33;;;3.20;99.90;;;;;;5065007;28;20492;-61
2021/11/28 12:49:31;;;;;;;4.10;3.13;;;3.10;99.90;;;;;;5063012;28;20495;-59
2021/11/28 12:52:23;;;;;;;4.53;3.00;;;3.10;99.90;;;;;;5067932;28;20535;-60
2021/11/28 12:55:04;;;;;;;5.25;2.88;;;3.00;99.90;;;;;;5056606;28;20106;-61
2021/11/28 12:57:40;;;;;;;7.80;3.45;;;2.90;99.90;;;;;;5061085;28;20079;-59
2021/11/28 13:00:27;;;;;;;8.10;3.38;;;2.80;99.90;;;;;;5061028;28;20436;-60
2021/11/28 13:03:00;;;;;;;;;;;2.90;99.90;;;;;;5087755;28;20054;-60
2021/11/28 13:05:46;;;;;;;6.90;3.35;;;2.90;99.90;;;;;;5085555;28;19923;-60